sensor_id;sensor_type;location;lat;lon;timestamp;P1;durP1;ratioP1;P2;durP2;ratioP2
53040;SDS011;39326;42.650;23.248;2024-01-16T00:01:37;11.30;;;10.03;;
53040;SDS011;39326;42.650;23.248;2024-01-16T00:04:03;10.90;;;9.63;;
53040;SDS011;39326;42.650;23.248;2024-01-16T00:06:28;11.50;;;10.10;;
53040;SDS011;39326;42.650;23.248;2024-01-16T00:08:54;9.13;;;8.17;;
53040;SDS011;39326;42.650;23.248;2024-01-16T00:11:20;9.50;;;8.50;;
53040;SDS011;39326;42.650;23.248;2024-01-16T00:13:45;8.77;;;7.87;;
53040;SDS011;39326;42.650;23.248;2024-01-16T00:16:11;9.87;;;8.30;;
53040;SDS011;39326;42.650;23.248;2024-01-16T00:18:36;8.57;;;7.70;;
53040;SDS011;39326;42.650;23.248;2024-01-16T00:21:02;8.47;;;7.60;;
53040;SDS011;39326;42.650;23.248;2024-01-16T00:23:28;10.57;;;8.40;;
53040;SDS011;39326;42.650;23.248;2024-01-16T00:25:53;9.40;;;7.83;;
53040;SDS011;39326;42.650;23.248;2024-01-16T00:28:19;9.07;;;8.13;;
53040;SDS011;39326;42.650;23.248;2024-01-16T00:30:45;9.30;;;8.23;;
53040;SDS011;39326;42.650;23.248;2024-01-16T00:33:10;9.27;;;8.13;;
53040;SDS011;39326;42.650;23.248;2024-01-16T00:35:37;9.20;;;7.77;;
53040;SDS011;39326;42.650;23.248;2024-01-16T00:38:03;8.73;;;6.67;;
53040;SDS011;39326;42.650;23.248;2024-01-16T00:40:28;8.90;;;8.00;;
53040;SDS011;39326;42.650;23.248;2024-01-16T00:42:54;10.03;;;9.03;;
53040;SDS011;39326;42.650;23.248;2024-01-16T00:45:20;10.73;;;8.73;;
53040;SDS011;39326;42.650;23.248;2024-01-16T00:47:46;9.63;;;8.37;;
53040;SDS011;39326;42.650;23.248;2024-01-16T00:50:12;10.90;;;9.13;;
53040;SDS011;39326;42.650;23.248;2024-01-16T00:52:38;9.03;;;7.83;;
53040;SDS011;39326;42.650;23.248;2024-01-16T00:55:03;8.67;;;7.30;;
53040;SDS011;39326;42.650;23.248;2024-01-16T00:57:29;9.27;;;7.17;;
53040;SDS011;39326;42.650;23.248;2024-01-16T00:59:55;9.87;;;7.50;;
53040;SDS011;39326;42.650;23.248;2024-01-16T01:02:21;7.63;;;6.17;;
53040;SDS011;39326;42.650;23.248;2024-01-16T01:04:47;8.17;;;7.37;;
53040;SDS011;39326;42.650;23.248;2024-01-16T01:07:15;8.23;;;6.90;;
53040;SDS011;39326;42.650;23.248;2024-01-16T01:09:40;7.90;;;6.87;;
53040;SDS011;39326;42.650;23.248;2024-01-16T01:12:06;6.87;;;6.10;;
53040;SDS011;39326;42.650;23.248;2024-01-16T01:14:32;8.27;;;6.67;;
53040;SDS011;39326;42.650;23.248;2024-01-16T01:16:58;6.57;;;5.67;;
53040;SDS011;39326;42.650;23.248;2024-01-16T01:19:24;6.80;;;6.07;;
53040;SDS011;39326;42.650;23.248;2024-01-16T01:21:50;7.20;;;6.20;;
53040;SDS011;39326;42.650;23.248;2024-01-16T01:24:15;7.97;;;5.70;;
53040;SDS011;39326;42.650;23.248;2024-01-16T01:26:42;3.27;;;2.87;;
53040;SDS011;39326;42.650;23.248;2024-01-16T01:29:09;7.07;;;6.37;;
53040;SDS011;39326;42.650;23.248;2024-01-16T01:31:35;6.57;;;5.87;;
53040;SDS011;39326;42.650;23.248;2024-01-16T01:34:00;4.50;;;4.10;;
53040;SDS011;39326;42.650;23.248;2024-01-16T01:36:26;5.30;;;4.77;;
53040;SDS011;39326;42.650;23.248;2024-01-16T01:38:52;6.23;;;5.67;;
53040;SDS011;39326;42.650;23.248;2024-01-16T01:41:18;4.20;;;3.80;;
53040;SDS011;39326;42.650;23.248;2024-01-16T01:43:44;3.43;;;1.77;;
53040;SDS011;39326;42.650;23.248;2024-01-16T01:46:15;2.47;;;1.80;;
53040;SDS011;39326;42.650;23.248;2024-01-16T01:48:43;3.30;;;2.00;;
53040;SDS011;39326;42.650;23.248;2024-01-16T01:51:13;4.17;;;1.77;;
53040;SDS011;39326;42.650;23.248;2024-01-16T01:53:41;2.20;;;1.40;;
53040;SDS011;39326;42.650;23.248;2024-01-16T01:56:10;1.43;;;1.10;;
53040;SDS011;39326;42.650;23.248;2024-01-16T01:58:39;2.10;;;1.30;;
53040;SDS011;39326;42.650;23.248;2024-01-16T02:01:08;2.77;;;1.77;;
53040;SDS011;39326;42.650;23.248;2024-01-16T02:03:41;1.70;;;1.60;;
53040;SDS011;39326;42.650;23.248;2024-01-16T02:06:09;1.90;;;1.50;;
53040;SDS011;39326;42.650;23.248;2024-01-16T02:08:36;3.13;;;1.40;;
53040;SDS011;39326;42.650;23.248;2024-01-16T02:11:01;2.40;;;1.40;;
53040;SDS011;39326;42.650;23.248;2024-01-16T02:13:27;2.87;;;1.30;;
53040;SDS011;39326;42.650;23.248;2024-01-16T02:15:53;1.60;;;1.20;;
53040;SDS011;39326;42.650;23.248;2024-01-16T02:18:19;2.00;;;1.27;;
53040;SDS011;39326;42.650;23.248;2024-01-16T02:20:45;1.97;;;1.10;;
53040;SDS011;39326;42.650;23.248;2024-01-16T02:23:12;2.03;;;1.30;;
53040;SDS011;39326;42.650;23.248;2024-01-16T02:25:40;2.73;;;1.47;;
53040;SDS011;39326;42.650;23.248;2024-01-16T02:28:07;2.63;;;1.40;;
53040;SDS011;39326;42.650;23.248;2024-01-16T02:30:33;2.00;;;1.33;;
53040;SDS011;39326;42.650;23.248;2024-01-16T02:32:59;1.27;;;1.17;;
53040;SDS011;39326;42.650;23.248;2024-01-16T02:35:24;1.87;;;1.30;;
53040;SDS011;39326;42.650;23.248;2024-01-16T02:37:50;1.90;;;1.40;;
53040;SDS011;39326;42.650;23.248;2024-01-16T02:40:16;1.40;;;1.23;;
53040;SDS011;39326;42.650;23.248;2024-01-16T02:42:42;1.20;;;1.10;;
53040;SDS011;39326;42.650;23.248;2024-01-16T02:45:07;1.30;;;1.13;;
53040;SDS011;39326;42.650;23.248;2024-01-16T02:47:33;1.10;;;1.00;;
53040;SDS011;39326;42.650;23.248;2024-01-16T02:49:59;0.90;;;0.90;;
53040;SDS011;39326;42.650;23.248;2024-01-16T02:52:25;1.20;;;1.10;;
53040;SDS011;39326;42.650;23.248;2024-01-16T02:54:51;1.63;;;1.10;;
53040;SDS011;39326;42.650;23.248;2024-01-16T02:57:16;1.37;;;1.20;;
53040;SDS011;39326;42.650;23.248;2024-01-16T02:59:45;1.23;;;0.93;;
53040;SDS011;39326;42.650;23.248;2024-01-16T03:02:11;1.33;;;1.00;;
53040;SDS011;39326;42.650;23.248;2024-01-16T03:04:37;1.10;;;1.00;;
53040;SDS011;39326;42.650;23.248;2024-01-16T03:07:02;6.37;;;5.77;;
53040;SDS011;39326;42.650;23.248;2024-01-16T03:09:28;7.53;;;6.80;;
53040;SDS011;39326;42.650;23.248;2024-01-16T03:11:54;6.93;;;6.23;;
53040;SDS011;39326;42.650;23.248;2024-01-16T03:14:20;7.30;;;6.60;;
53040;SDS011;39326;42.650;23.248;2024-01-16T03:16:46;7.50;;;6.77;;
53040;SDS011;39326;42.650;23.248;2024-01-16T03:19:12;6.90;;;6.23;;
53040;SDS011;39326;42.650;23.248;2024-01-16T03:21:37;3.97;;;3.57;;
53040;SDS011;39326;42.650;23.248;2024-01-16T03:24:04;3.83;;;3.37;;
53040;SDS011;39326;42.650;23.248;2024-01-16T03:26:31;3.40;;;3.10;;
53040;SDS011;39326;42.650;23.248;2024-01-16T03:28:57;2.90;;;2.70;;
53040;SDS011;39326;42.650;23.248;2024-01-16T03:31:23;3.40;;;3.10;;
53040;SDS011;39326;42.650;23.248;2024-01-16T03:33:49;3.40;;;3.10;;
53040;SDS011;39326;42.650;23.248;2024-01-16T03:36:15;3.60;;;3.30;;
53040;SDS011;39326;42.650;23.248;2024-01-16T03:38:43;2.87;;;2.67;;
53040;SDS011;39326;42.650;23.248;2024-01-16T03:41:13;3.90;;;3.60;;
53040;SDS011;39326;42.650;23.248;2024-01-16T03:43:39;3.90;;;3.60;;
53040;SDS011;39326;42.650;23.248;2024-01-16T03:46:05;2.63;;;2.40;;
53040;SDS011;39326;42.650;23.248;2024-01-16T03:48:31;3.27;;;2.97;;
53040;SDS011;39326;42.650;23.248;2024-01-16T03:50:57;2.47;;;2.27;;
53040;SDS011;39326;42.650;23.248;2024-01-16T03:53:22;3.50;;;3.20;;
53040;SDS011;39326;42.650;23.248;2024-01-16T03:55:48;4.07;;;3.77;;
53040;SDS011;39326;42.650;23.248;2024-01-16T03:58:15;2.53;;;2.33;;
53040;SDS011;39326;42.650;23.248;2024-01-16T04:00:41;4.53;;;3.70;;
53040;SDS011;39326;42.650;23.248;2024-01-16T04:03:06;4.00;;;3.60;;
53040;SDS011;39326;42.650;23.248;2024-01-16T04:05:32;2.57;;;2.37;;
53040;SDS011;39326;42.650;23.248;2024-01-16T04:07:58;4.07;;;3.77;;
53040;SDS011;39326;42.650;23.248;2024-01-16T04:10:24;2.60;;;2.33;;
53040;SDS011;39326;42.650;23.248;2024-01-16T04:12:49;2.70;;;2.50;;
53040;SDS011;39326;42.650;23.248;2024-01-16T04:15:15;2.87;;;2.67;;
53040;SDS011;39326;42.650;23.248;2024-01-16T04:17:41;2.50;;;2.30;;
53040;SDS011;39326;42.650;23.248;2024-01-16T04:20:06;2.80;;;2.60;;
53040;SDS011;39326;42.650;23.248;2024-01-16T04:22:32;2.90;;;2.70;;
53040;SDS011;39326;42.650;23.248;2024-01-16T04:24:58;2.40;;;2.20;;
53040;SDS011;39326;42.650;23.248;2024-01-16T04:27:24;2.93;;;2.63;;
53040;SDS011;39326;42.650;23.248;2024-01-16T04:29:50;2.70;;;2.50;;
53040;SDS011;39326;42.650;23.248;2024-01-16T04:32:16;2.40;;;2.20;;
53040;SDS011;39326;42.650;23.248;2024-01-16T04:34:41;2.30;;;2.10;;
53040;SDS011;39326;42.650;23.248;2024-01-16T04:37:07;2.63;;;2.43;;
53040;SDS011;39326;42.650;23.248;2024-01-16T04:39:33;2.60;;;2.30;;
53040;SDS011;39326;42.650;23.248;2024-01-16T04:41:58;2.07;;;1.87;;
53040;SDS011;39326;42.650;23.248;2024-01-16T04:44:24;1.90;;;1.80;;
53040;SDS011;39326;42.650;23.248;2024-01-16T04:46:50;2.37;;;2.17;;
53040;SDS011;39326;42.650;23.248;2024-01-16T04:49:15;2.17;;;1.97;;
53040;SDS011;39326;42.650;23.248;2024-01-16T04:51:41;1.50;;;1.40;;
53040;SDS011;39326;42.650;23.248;2024-01-16T04:54:07;1.77;;;1.67;;
53040;SDS011;39326;42.650;23.248;2024-01-16T04:56:32;2.63;;;2.17;;
53040;SDS011;39326;42.650;23.248;2024-01-16T04:58:58;1.87;;;1.77;;
53040;SDS011;39326;42.650;23.248;2024-01-16T05:01:24;1.70;;;1.60;;
53040;SDS011;39326;42.650;23.248;2024-01-16T05:03:50;2.57;;;1.60;;
53040;SDS011;39326;42.650;23.248;2024-01-16T05:06:16;1.60;;;1.40;;
53040;SDS011;39326;42.650;23.248;2024-01-16T05:08:42;1.57;;;1.47;;
53040;SDS011;39326;42.650;23.248;2024-01-16T05:11:08;1.87;;;1.73;;
53040;SDS011;39326;42.650;23.248;2024-01-16T05:13:34;1.60;;;1.50;;
53040;SDS011;39326;42.650;23.248;2024-01-16T05:16:00;1.60;;;1.50;;
53040;SDS011;39326;42.650;23.248;2024-01-16T05:18:25;1.53;;;1.43;;
53040;SDS011;39326;42.650;23.248;2024-01-16T05:20:51;1.63;;;1.53;;
53040;SDS011;39326;42.650;23.248;2024-01-16T05:23:16;1.57;;;1.47;;
53040;SDS011;39326;42.650;23.248;2024-01-16T05:25:43;1.80;;;1.70;;
53040;SDS011;39326;42.650;23.248;2024-01-16T05:28:08;1.70;;;1.60;;
53040;SDS011;39326;42.650;23.248;2024-01-16T05:30:34;1.30;;;1.20;;
53040;SDS011;39326;42.650;23.248;2024-01-16T05:33:00;1.27;;;1.17;;
53040;SDS011;39326;42.650;23.248;2024-01-16T05:35:28;1.27;;;1.17;;
53040;SDS011;39326;42.650;23.248;2024-01-16T05:37:54;1.03;;;0.93;;
53040;SDS011;39326;42.650;23.248;2024-01-16T05:40:20;1.00;;;0.90;;
53040;SDS011;39326;42.650;23.248;2024-01-16T05:42:47;1.40;;;1.30;;
53040;SDS011;39326;42.650;23.248;2024-01-16T05:45:14;1.40;;;1.30;;
53040;SDS011;39326;42.650;23.248;2024-01-16T05:47:40;1.13;;;1.03;;
53040;SDS011;39326;42.650;23.248;2024-01-16T05:50:06;1.23;;;1.13;;
53040;SDS011;39326;42.650;23.248;2024-01-16T05:52:32;1.10;;;1.00;;
53040;SDS011;39326;42.650;23.248;2024-01-16T05:54:57;1.40;;;1.30;;
53040;SDS011;39326;42.650;23.248;2024-01-16T05:57:24;1.37;;;1.27;;
53040;SDS011;39326;42.650;23.248;2024-01-16T05:59:51;1.10;;;1.00;;
53040;SDS011;39326;42.650;23.248;2024-01-16T06:02:16;1.40;;;1.30;;
53040;SDS011;39326;42.650;23.248;2024-01-16T06:04:42;1.40;;;1.30;;
53040;SDS011;39326;42.650;23.248;2024-01-16T06:07:08;2.50;;;1.37;;
53040;SDS011;39326;42.650;23.248;2024-01-16T06:09:37;1.20;;;1.10;;
53040;SDS011;39326;42.650;23.248;2024-01-16T06:12:05;1.40;;;1.30;;
53040;SDS011;39326;42.650;23.248;2024-01-16T06:14:32;1.10;;;1.00;;
53040;SDS011;39326;42.650;23.248;2024-01-16T06:16:57;0.80;;;0.80;;
53040;SDS011;39326;42.650;23.248;2024-01-16T06:19:23;1.60;;;1.50;;
53040;SDS011;39326;42.650;23.248;2024-01-16T06:21:49;1.47;;;1.37;;
53040;SDS011;39326;42.650;23.248;2024-01-16T06:24:14;1.67;;;1.40;;
53040;SDS011;39326;42.650;23.248;2024-01-16T06:26:40;1.50;;;1.40;;
53040;SDS011;39326;42.650;23.248;2024-01-16T06:29:05;1.50;;;1.40;;
53040;SDS011;39326;42.650;23.248;2024-01-16T06:31:31;1.57;;;1.47;;
53040;SDS011;39326;42.650;23.248;2024-01-16T06:33:57;1.60;;;1.50;;
53040;SDS011;39326;42.650;23.248;2024-01-16T06:36:22;2.10;;;2.00;;
53040;SDS011;39326;42.650;23.248;2024-01-16T06:38:48;1.37;;;1.27;;
53040;SDS011;39326;42.650;23.248;2024-01-16T06:41:13;1.50;;;1.30;;
53040;SDS011;39326;42.650;23.248;2024-01-16T06:43:39;1.20;;;1.10;;
53040;SDS011;39326;42.650;23.248;2024-01-16T06:46:04;2.07;;;1.20;;
53040;SDS011;39326;42.650;23.248;2024-01-16T06:48:30;1.37;;;1.20;;
53040;SDS011;39326;42.650;23.248;2024-01-16T06:50:56;2.30;;;0.83;;
53040;SDS011;39326;42.650;23.248;2024-01-16T06:53:22;1.43;;;1.30;;
53040;SDS011;39326;42.650;23.248;2024-01-16T06:55:48;1.40;;;1.30;;
53040;SDS011;39326;42.650;23.248;2024-01-16T06:58:13;2.10;;;1.30;;
53040;SDS011;39326;42.650;23.248;2024-01-16T07:00:39;1.30;;;1.00;;
53040;SDS011;39326;42.650;23.248;2024-01-16T07:03:06;1.70;;;0.90;;
53040;SDS011;39326;42.650;23.248;2024-01-16T07:05:32;0.97;;;0.73;;
53040;SDS011;39326;42.650;23.248;2024-01-16T07:07:57;1.27;;;1.10;;
53040;SDS011;39326;42.650;23.248;2024-01-16T07:10:23;1.20;;;1.00;;
53040;SDS011;39326;42.650;23.248;2024-01-16T07:12:49;1.00;;;0.60;;
53040;SDS011;39326;42.650;23.248;2024-01-16T07:15:16;0.80;;;0.80;;
53040;SDS011;39326;42.650;23.248;2024-01-16T07:17:43;1.07;;;0.70;;
53040;SDS011;39326;42.650;23.248;2024-01-16T07:20:09;1.83;;;1.27;;
53040;SDS011;39326;42.650;23.248;2024-01-16T07:22:36;1.47;;;1.00;;
53040;SDS011;39326;42.650;23.248;2024-01-16T07:25:02;1.40;;;1.00;;
53040;SDS011;39326;42.650;23.248;2024-01-16T07:27:28;0.87;;;0.87;;
53040;SDS011;39326;42.650;23.248;2024-01-16T07:29:53;0.80;;;0.80;;
53040;SDS011;39326;42.650;23.248;2024-01-16T07:32:19;0.97;;;0.93;;
53040;SDS011;39326;42.650;23.248;2024-01-16T07:34:44;0.97;;;0.90;;
53040;SDS011;39326;42.650;23.248;2024-01-16T07:37:10;2.20;;;0.90;;
53040;SDS011;39326;42.650;23.248;2024-01-16T07:39:36;1.53;;;1.40;;
53040;SDS011;39326;42.650;23.248;2024-01-16T07:42:01;1.90;;;1.70;;
53040;SDS011;39326;42.650;23.248;2024-01-16T07:44:27;1.90;;;1.60;;
53040;SDS011;39326;42.650;23.248;2024-01-16T07:46:52;1.60;;;1.17;;
53040;SDS011;39326;42.650;23.248;2024-01-16T07:49:18;1.70;;;1.50;;
53040;SDS011;39326;42.650;23.248;2024-01-16T07:51:43;1.60;;;1.17;;
53040;SDS011;39326;42.650;23.248;2024-01-16T07:54:09;1.57;;;1.10;;
53040;SDS011;39326;42.650;23.248;2024-01-16T07:56:35;1.17;;;1.07;;
53040;SDS011;39326;42.650;23.248;2024-01-16T07:59:02;1.27;;;1.00;;
53040;SDS011;39326;42.650;23.248;2024-01-16T08:01:28;1.20;;;0.97;;
53040;SDS011;39326;42.650;23.248;2024-01-16T08:03:54;1.67;;;1.10;;
53040;SDS011;39326;42.650;23.248;2024-01-16T08:06:20;1.20;;;1.10;;
53040;SDS011;39326;42.650;23.248;2024-01-16T08:08:46;1.10;;;1.00;;
53040;SDS011;39326;42.650;23.248;2024-01-16T08:11:12;1.17;;;0.97;;
53040;SDS011;39326;42.650;23.248;2024-01-16T08:13:38;1.20;;;1.10;;
53040;SDS011;39326;42.650;23.248;2024-01-16T08:16:04;1.27;;;1.17;;
53040;SDS011;39326;42.650;23.248;2024-01-16T08:18:30;0.77;;;0.77;;
53040;SDS011;39326;42.650;23.248;2024-01-16T08:20:56;1.00;;;0.90;;
53040;SDS011;39326;42.650;23.248;2024-01-16T08:23:22;1.13;;;1.00;;
53040;SDS011;39326;42.650;23.248;2024-01-16T08:25:48;1.30;;;1.10;;
53040;SDS011;39326;42.650;23.248;2024-01-16T08:28:14;3.87;;;3.00;;
53040;SDS011;39326;42.650;23.248;2024-01-16T08:30:40;1.00;;;0.90;;
53040;SDS011;39326;42.650;23.248;2024-01-16T08:33:05;0.83;;;0.70;;
53040;SDS011;39326;42.650;23.248;2024-01-16T08:35:32;0.80;;;0.80;;
53040;SDS011;39326;42.650;23.248;2024-01-16T08:37:58;1.17;;;1.03;;
53040;SDS011;39326;42.650;23.248;2024-01-16T08:40:23;1.03;;;0.90;;
53040;SDS011;39326;42.650;23.248;2024-01-16T08:42:49;0.90;;;0.90;;
53040;SDS011;39326;42.650;23.248;2024-01-16T08:45:19;1.00;;;0.90;;
53040;SDS011;39326;42.650;23.248;2024-01-16T08:47:46;2.80;;;2.13;;
53040;SDS011;39326;42.650;23.248;2024-01-16T08:50:11;1.43;;;1.00;;
53040;SDS011;39326;42.650;23.248;2024-01-16T08:52:37;1.13;;;0.97;;
53040;SDS011;39326;42.650;23.248;2024-01-16T08:55:03;1.10;;;1.00;;
53040;SDS011;39326;42.650;23.248;2024-01-16T08:57:29;0.80;;;0.80;;
53040;SDS011;39326;42.650;23.248;2024-01-16T08:59:55;0.90;;;0.90;;
53040;SDS011;39326;42.650;23.248;2024-01-16T09:02:20;0.80;;;0.80;;
53040;SDS011;39326;42.650;23.248;2024-01-16T09:04:46;1.10;;;1.00;;
53040;SDS011;39326;42.650;23.248;2024-01-16T09:07:15;1.07;;;0.90;;
53040;SDS011;39326;42.650;23.248;2024-01-16T09:09:41;2.03;;;1.10;;
53040;SDS011;39326;42.650;23.248;2024-01-16T09:12:08;2.47;;;1.30;;
53040;SDS011;39326;42.650;23.248;2024-01-16T09:14:34;1.07;;;0.90;;
53040;SDS011;39326;42.650;23.248;2024-01-16T09:17:00;1.27;;;1.00;;
53040;SDS011;39326;42.650;23.248;2024-01-16T09:19:25;1.27;;;1.13;;
53040;SDS011;39326;42.650;23.248;2024-01-16T09:21:51;1.40;;;1.10;;
53040;SDS011;39326;42.650;23.248;2024-01-16T09:24:17;0.80;;;0.80;;
53040;SDS011;39326;42.650;23.248;2024-01-16T09:26:44;1.23;;;1.13;;
53040;SDS011;39326;42.650;23.248;2024-01-16T09:29:09;1.30;;;1.20;;
53040;SDS011;39326;42.650;23.248;2024-01-16T09:31:35;1.33;;;1.17;;
53040;SDS011;39326;42.650;23.248;2024-01-16T09:34:02;0.90;;;0.90;;
53040;SDS011;39326;42.650;23.248;2024-01-16T09:36:29;1.30;;;1.20;;
53040;SDS011;39326;42.650;23.248;2024-01-16T09:38:54;1.80;;;1.50;;
53040;SDS011;39326;42.650;23.248;2024-01-16T09:41:19;1.40;;;1.30;;
53040;SDS011;39326;42.650;23.248;2024-01-16T09:43:46;1.57;;;1.30;;
53040;SDS011;39326;42.650;23.248;2024-01-16T09:46:12;1.77;;;1.60;;
53040;SDS011;39326;42.650;23.248;2024-01-16T09:48:41;2.23;;;1.20;;
53040;SDS011;39326;42.650;23.248;2024-01-16T09:51:09;1.80;;;1.40;;
53040;SDS011;39326;42.650;23.248;2024-01-16T09:53:39;1.10;;;1.00;;
53040;SDS011;39326;42.650;23.248;2024-01-16T09:56:06;1.70;;;1.23;;
53040;SDS011;39326;42.650;23.248;2024-01-16T09:58:39;1.43;;;1.10;;
53040;SDS011;39326;42.650;23.248;2024-01-16T10:01:06;1.43;;;1.17;;
53040;SDS011;39326;42.650;23.248;2024-01-16T10:03:31;0.80;;;0.80;;
53040;SDS011;39326;42.650;23.248;2024-01-16T10:06:06;1.87;;;1.20;;
53040;SDS011;39326;42.650;23.248;2024-01-16T10:08:32;1.00;;;0.90;;
53040;SDS011;39326;42.650;23.248;2024-01-16T10:10:58;1.03;;;0.93;;
53040;SDS011;39326;42.650;23.248;2024-01-16T10:13:25;1.20;;;0.90;;
53040;SDS011;39326;42.650;23.248;2024-01-16T10:15:51;0.93;;;0.80;;
53040;SDS011;39326;42.650;23.248;2024-01-16T10:18:26;1.13;;;1.03;;
53040;SDS011;39326;42.650;23.248;2024-01-16T10:20:55;1.17;;;1.00;;
53040;SDS011;39326;42.650;23.248;2024-01-16T10:23:25;1.00;;;0.80;;
53040;SDS011;39326;42.650;23.248;2024-01-16T10:26:11;1.47;;;1.10;;
53040;SDS011;39326;42.650;23.248;2024-01-16T10:28:40;1.47;;;1.10;;
53040;SDS011;39326;42.650;23.248;2024-01-16T10:33:33;1.10;;;0.87;;
53040;SDS011;39326;42.650;23.248;2024-01-16T10:38:35;1.23;;;1.13;;
53040;SDS011;39326;42.650;23.248;2024-01-16T10:41:08;1.73;;;1.50;;
53040;SDS011;39326;42.650;23.248;2024-01-16T10:43:34;1.80;;;1.50;;
53040;SDS011;39326;42.650;23.248;2024-01-16T10:46:09;1.87;;;1.33;;
53040;SDS011;39326;42.650;23.248;2024-01-16T10:48:38;1.10;;;1.00;;
53040;SDS011;39326;42.650;23.248;2024-01-16T10:51:09;0.73;;;0.73;;
53040;SDS011;39326;42.650;23.248;2024-01-16T10:53:37;1.43;;;1.10;;
53040;SDS011;39326;42.650;23.248;2024-01-16T10:56:06;1.13;;;1.00;;
53040;SDS011;39326;42.650;23.248;2024-01-16T10:58:35;1.27;;;1.00;;
53040;SDS011;39326;42.650;23.248;2024-01-16T11:01:03;1.20;;;1.10;;
53040;SDS011;39326;42.650;23.248;2024-01-16T11:03:42;0.67;;;0.67;;
53040;SDS011;39326;42.650;23.248;2024-01-16T11:06:13;1.10;;;1.00;;
53040;SDS011;39326;42.650;23.248;2024-01-16T11:08:41;1.47;;;1.00;;
53040;SDS011;39326;42.650;23.248;2024-01-16T11:11:07;1.37;;;1.20;;
53040;SDS011;39326;42.650;23.248;2024-01-16T11:13:34;1.43;;;1.20;;
53040;SDS011;39326;42.650;23.248;2024-01-16T11:16:00;1.30;;;1.20;;
53040;SDS011;39326;42.650;23.248;2024-01-16T11:18:28;1.40;;;1.20;;
53040;SDS011;39326;42.650;23.248;2024-01-16T11:20:55;1.17;;;1.07;;
53040;SDS011;39326;42.650;23.248;2024-01-16T11:23:21;0.80;;;0.80;;
53040;SDS011;39326;42.650;23.248;2024-01-16T11:25:48;1.17;;;0.90;;
53040;SDS011;39326;42.650;23.248;2024-01-16T11:28:14;1.17;;;0.97;;
53040;SDS011;39326;42.650;23.248;2024-01-16T11:30:41;1.30;;;1.07;;
53040;SDS011;39326;42.650;23.248;2024-01-16T11:35:56;1.50;;;1.40;;
53040;SDS011;39326;42.650;23.248;2024-01-16T11:38:21;2.40;;;1.67;;
53040;SDS011;39326;42.650;23.248;2024-01-16T11:40:47;1.77;;;1.50;;
53040;SDS011;39326;42.650;23.248;2024-01-16T11:45:57;2.00;;;1.70;;
53040;SDS011;39326;42.650;23.248;2024-01-16T11:48:23;1.80;;;1.70;;
53040;SDS011;39326;42.650;23.248;2024-01-16T11:50:49;2.40;;;2.20;;
53040;SDS011;39326;42.650;23.248;2024-01-16T11:53:31;2.40;;;2.20;;
53040;SDS011;39326;42.650;23.248;2024-01-16T12:01:29;2.10;;;1.90;;
53040;SDS011;39326;42.650;23.248;2024-01-16T12:04:03;2.30;;;2.10;;
53040;SDS011;39326;42.650;23.248;2024-01-16T12:06:30;1.80;;;1.70;;
53040;SDS011;39326;42.650;23.248;2024-01-16T12:09:10;2.03;;;1.77;;
53040;SDS011;39326;42.650;23.248;2024-01-16T12:11:39;2.00;;;1.80;;
53040;SDS011;39326;42.650;23.248;2024-01-16T12:14:05;2.40;;;2.07;;
53040;SDS011;39326;42.650;23.248;2024-01-16T12:16:30;2.03;;;1.93;;
53040;SDS011;39326;42.650;23.248;2024-01-16T12:19:05;1.93;;;1.83;;
53040;SDS011;39326;42.650;23.248;2024-01-16T12:21:32;2.00;;;1.83;;
53040;SDS011;39326;42.650;23.248;2024-01-16T12:23:59;2.10;;;1.80;;
53040;SDS011;39326;42.650;23.248;2024-01-16T12:26:24;3.17;;;2.00;;
53040;SDS011;39326;42.650;23.248;2024-01-16T12:28:53;1.70;;;1.60;;
53040;SDS011;39326;42.650;23.248;2024-01-16T12:31:19;2.03;;;1.83;;
53040;SDS011;39326;42.650;23.248;2024-01-16T12:33:44;1.90;;;1.80;;
53040;SDS011;39326;42.650;23.248;2024-01-16T12:36:09;2.13;;;1.93;;
53040;SDS011;39326;42.650;23.248;2024-01-16T12:38:35;1.93;;;1.63;;
53040;SDS011;39326;42.650;23.248;2024-01-16T12:41:01;1.40;;;1.30;;
53040;SDS011;39326;42.650;23.248;2024-01-16T12:43:31;1.97;;;1.50;;
53040;SDS011;39326;42.650;23.248;2024-01-16T12:45:58;1.53;;;1.37;;
53040;SDS011;39326;42.650;23.248;2024-01-16T12:48:24;2.30;;;1.70;;
53040;SDS011;39326;42.650;23.248;2024-01-16T12:50:50;1.30;;;1.20;;
53040;SDS011;39326;42.650;23.248;2024-01-16T12:53:16;1.60;;;1.50;;
53040;SDS011;39326;42.650;23.248;2024-01-16T12:55:44;1.53;;;1.43;;
53040;SDS011;39326;42.650;23.248;2024-01-16T12:58:20;1.77;;;1.50;;
53040;SDS011;39326;42.650;23.248;2024-01-16T13:00:48;1.67;;;1.30;;
53040;SDS011;39326;42.650;23.248;2024-01-16T13:03:18;2.10;;;1.90;;
53040;SDS011;39326;42.650;23.248;2024-01-16T13:05:45;1.70;;;1.60;;
53040;SDS011;39326;42.650;23.248;2024-01-16T13:08:19;2.40;;;2.00;;
53040;SDS011;39326;42.650;23.248;2024-01-16T13:10:46;2.90;;;2.37;;
53040;SDS011;39326;42.650;23.248;2024-01-16T13:13:18;2.87;;;2.37;;
53040;SDS011;39326;42.650;23.248;2024-01-16T13:15:47;1.73;;;1.63;;
53040;SDS011;39326;42.650;23.248;2024-01-16T13:18:19;2.97;;;2.00;;
53040;SDS011;39326;42.650;23.248;2024-01-16T13:20:47;2.53;;;2.33;;
53040;SDS011;39326;42.650;23.248;2024-01-16T13:23:22;2.40;;;2.07;;
53040;SDS011;39326;42.650;23.248;2024-01-16T13:25:50;2.70;;;2.00;;
53040;SDS011;39326;42.650;23.248;2024-01-16T13:28:17;2.10;;;1.90;;
53040;SDS011;39326;42.650;23.248;2024-01-16T13:30:43;2.83;;;1.97;;
53040;SDS011;39326;42.650;23.248;2024-01-16T13:33:10;2.83;;;1.97;;
53040;SDS011;39326;42.650;23.248;2024-01-16T13:35:38;2.10;;;1.90;;
53040;SDS011;39326;42.650;23.248;2024-01-16T13:38:05;2.20;;;1.97;;
53040;SDS011;39326;42.650;23.248;2024-01-16T13:40:31;1.80;;;1.70;;
53040;SDS011;39326;42.650;23.248;2024-01-16T13:42:57;1.80;;;1.70;;
53040;SDS011;39326;42.650;23.248;2024-01-16T13:45:22;2.30;;;2.10;;
53040;SDS011;39326;42.650;23.248;2024-01-16T13:47:48;2.00;;;1.90;;
53040;SDS011;39326;42.650;23.248;2024-01-16T13:50:14;2.50;;;2.30;;
53040;SDS011;39326;42.650;23.248;2024-01-16T13:52:39;2.10;;;1.90;;
53040;SDS011;39326;42.650;23.248;2024-01-16T13:55:05;1.77;;;1.67;;
53040;SDS011;39326;42.650;23.248;2024-01-16T13:57:31;1.90;;;1.80;;
53040;SDS011;39326;42.650;23.248;2024-01-16T13:59:59;2.07;;;1.90;;
53040;SDS011;39326;42.650;23.248;2024-01-16T14:02:25;1.97;;;1.27;;
53040;SDS011;39326;42.650;23.248;2024-01-16T14:04:51;2.13;;;1.93;;
53040;SDS011;39326;42.650;23.248;2024-01-16T14:07:16;2.13;;;1.67;;
53040;SDS011;39326;42.650;23.248;2024-01-16T14:09:42;2.10;;;1.90;;
53040;SDS011;39326;42.650;23.248;2024-01-16T14:12:07;3.10;;;2.80;;
53040;SDS011;39326;42.650;23.248;2024-01-16T14:14:33;2.70;;;2.50;;
53040;SDS011;39326;42.650;23.248;2024-01-16T14:16:59;2.93;;;2.63;;
53040;SDS011;39326;42.650;23.248;2024-01-16T14:19:25;2.70;;;2.50;;
53040;SDS011;39326;42.650;23.248;2024-01-16T14:21:52;2.70;;;2.50;;
53040;SDS011;39326;42.650;23.248;2024-01-16T14:24:17;2.53;;;2.17;;
53040;SDS011;39326;42.650;23.248;2024-01-16T14:26:43;2.03;;;1.83;;
53040;SDS011;39326;42.650;23.248;2024-01-16T14:29:10;2.23;;;1.87;;
53040;SDS011;39326;42.650;23.248;2024-01-16T14:31:36;3.00;;;2.20;;
53040;SDS011;39326;42.650;23.248;2024-01-16T14:34:01;2.97;;;2.33;;
53040;SDS011;39326;42.650;23.248;2024-01-16T14:36:26;2.60;;;2.30;;
53040;SDS011;39326;42.650;23.248;2024-01-16T14:38:52;2.43;;;2.23;;
53040;SDS011;39326;42.650;23.248;2024-01-16T14:41:17;2.77;;;2.40;;
53040;SDS011;39326;42.650;23.248;2024-01-16T14:43:43;1.80;;;1.70;;
53040;SDS011;39326;42.650;23.248;2024-01-16T14:46:08;2.60;;;1.97;;